Time,TemperatureF,DewpointF,PressureIn,WindDirection,WindDirectionDegrees,WindSpeedMPH,WindSpeedGustMPH,Humidity,HourlyPrecipIn,Conditions,Clouds,dailyrainin,SoftwareType,DateUTC
2013-09-29 00:14:00,46.0,43.0,30.07,ENE,68,0.0,0.0,88,0.00,,,0.10,,2013-09-29 05:14:00,
2013-09-29 00:22:00,46.0,43.0,30.07,ENE,68,0.0,0.0,88,0.00,,,0.10,,2013-09-29 05:22:00,
2013-09-29 00:43:00,45.0,42.0,30.09,ENE,68,0.0,1.0,89,0.00,,,0.10,,2013-09-29 05:43:00,
2013-09-29 00:53:00,45.0,42.0,30.09,ENE,68,0.0,1.0,89,0.00,,,0.10,,2013-09-29 05:53:00,
2013-09-29 01:12:00,44.0,42.0,30.07,ENE,68,0.0,3.0,91,0.00,,,0.10,,2013-09-29 06:12:00,
2013-09-29 01:22:00,44.0,42.0,30.07,ENE,68,0.0,3.0,91,0.00,,,0.10,,2013-09-29 06:22:00,
2013-09-29 01:42:00,45.0,43.0,30.06,ENE,68,0.0,0.0,91,0.00,,,0.00,,2013-09-29 06:42:00,
2013-09-29 01:52:00,45.0,43.0,30.06,ENE,68,0.0,0.0,91,0.00,,,0.00,,2013-09-29 06:52:00,
2013-09-29 02:11:00,44.0,42.0,30.05,ENE,68,0.0,1.0,92,0.00,,,0.00,,2013-09-29 07:11:00,
2013-09-29 02:22:00,44.0,42.0,30.05,ENE,68,0.0,1.0,92,0.00,,,0.00,,2013-09-29 07:22:00,
2013-09-29 02:43:00,44.0,42.0,30.05,ENE,68,0.0,3.0,91,0.00,,,0.00,,2013-09-29 07:43:00,
2013-09-29 02:52:00,44.0,42.0,30.05,ENE,68,0.0,3.0,91,0.00,,,0.00,,2013-09-29 07:52:00,
2013-09-29 03:12:00,42.0,40.0,30.05,ENE,68,0.0,0.0,91,0.00,,,0.00,,2013-09-29 08:12:00,
2013-09-29 03:22:00,42.0,40.0,30.05,ENE,68,0.0,0.0,91,0.00,,,0.00,,2013-09-29 08:22:00,
2013-09-29 03:42:00,41.0,39.0,30.06,ENE,68,0.0,2.0,92,0.00,,,0.00,,2013-09-29 08:42:00,
2013-09-29 03:52:00,41.0,39.0,30.06,ENE,68,0.0,2.0,92,0.00,,,0.00,,2013-09-29 08:52:00,
2013-09-29 04:11:00,41.0,39.0,30.06,ENE,68,0.0,2.0,92,0.00,,,0.00,,2013-09-29 09:11:00,
2013-09-29 04:22:00,41.0,39.0,30.06,ENE,68,0.0,2.0,92,0.00,,,0.00,,2013-09-29 09:22:00,
2013-09-29 04:43:00,41.0,39.0,30.05,ENE,68,0.0,3.0,94,0.00,,,0.00,,2013-09-29 09:43:00,
2013-09-29 04:54:00,41.0,39.0,30.05,ENE,68,0.0,3.0,94,0.00,,,0.00,,2013-09-29 09:54:00,
2013-09-29 05:12:00,41.0,39.0,30.04,ENE,68,0.0,3.0,94,0.00,,,0.00,,2013-09-29 10:12:00,
2013-09-29 05:23:00,41.0,39.0,30.04,ENE,68,0.0,3.0,94,0.00,,,0.00,,2013-09-29 10:23:00,
2013-09-29 05:43:00,41.0,39.0,30.04,ENE,68,0.0,3.0,94,0.00,,,0.00,,2013-09-29 10:43:00,
2013-09-29 05:53:00,41.0,39.0,30.04,ENE,68,0.0,3.0,94,0.00,,,0.00,,2013-09-29 10:53:00,
2013-09-29 06:12:00,40.0,38.0,30.06,ENE,68,0.0,2.0,94,0.00,,,0.00,,2013-09-29 11:12:00,
2013-09-29 06:22:00,40.0,38.0,30.06,ENE,68,0.0,2.0,94,0.00,,,0.00,,2013-09-29 11:22:00,
2013-09-29 06:42:00,40.0,39.0,30.06,ENE,68,0.0,2.0,95,0.00,,,0.00,,2013-09-29 11:42:00,
2013-09-29 06:52:00,40.0,39.0,30.06,ENE,68,0.0,2.0,95,0.00,,,0.00,,2013-09-29 11:52:00,
2013-09-29 07:12:00,39.0,38.0,30.09,ENE,68,1.0,2.0,95,0.01,,,0.01,,2013-09-29 12:12:00,
2013-09-29 07:21:00,39.0,38.0,30.09,ENE,68,1.0,2.0,95,0.01,,,0.01,,2013-09-29 12:21:00,
2013-09-29 07:42:00,39.0,38.0,30.10,ENE,68,0.0,1.0,95,0.01,,,0.01,,2013-09-29 12:42:00,
2013-09-29 07:52:00,39.0,38.0,30.10,ENE,68,0.0,1.0,95,0.01,,,0.01,,2013-09-29 12:52:00,
2013-09-29 08:11:00,39.0,38.0,30.13,ENE,68,0.0,1.0,95,0.00,,,0.01,,2013-09-29 13:11:00,
2013-09-29 08:22:00,39.0,38.0,30.13,ENE,68,0.0,1.0,95,0.00,,,0.01,,2013-09-29 13:22:00,
2013-09-29 08:53:00,39.0,38.0,30.13,ENE,68,1.0,3.0,96,0.00,,,0.01,,2013-09-29 13:53:00,
2013-09-29 09:12:00,41.0,40.0,30.15,ENE,68,1.0,2.0,96,0.00,,,0.01,,2013-09-29 14:12:00,
2013-09-29 09:21:00,41.0,40.0,30.15,ENE,68,1.0,2.0,96,0.00,,,0.01,,2013-09-29 14:21:00,
2013-09-29 09:43:00,48.0,47.0,30.11,ENE,68,0.0,3.0,96,0.00,,,0.01,,2013-09-29 14:43:00,
2013-09-29 09:52:00,48.0,47.0,30.11,ENE,68,0.0,3.0,96,0.00,,,0.01,,2013-09-29 14:52:00,
2013-09-29 10:12:00,54.0,46.0,30.09,SSW,199,1.0,6.0,74,0.00,,,0.01,,2013-09-29 15:12:00,
2013-09-29 10:22:00,54.0,46.0,30.09,SSW,199,1.0,6.0,74,0.00,,,0.01,,2013-09-29 15:22:00,
2013-09-29 10:45:00,63.0,44.0,30.04,SSW,200,0.0,2.0,50,0.00,,,0.01,,2013-09-29 15:45:00,
2013-09-29 10:55:00,63.0,44.0,30.04,SSW,200,0.0,2.0,50,0.00,,,0.01,,2013-09-29 15:55:00,
2013-09-29 11:24:00,68.0,41.0,30.02,WNW,298,2.0,7.0,38,0.00,,,0.01,,2013-09-29 16:24:00,
2013-09-29 11:44:00,69.0,38.0,30.03,SSW,212,7.0,14.0,32,0.00,,,0.01,,2013-09-29 16:44:00,
2013-09-29 11:54:00,69.0,38.0,30.03,SSW,212,7.0,14.0,32,0.00,,,0.01,,2013-09-29 16:54:00,
2013-09-29 12:13:00,69.0,36.0,30.03,WNW,302,4.0,16.0,30,0.00,,,0.01,,2013-09-29 17:13:00,
2013-09-29 12:24:00,69.0,36.0,30.03,WNW,302,4.0,16.0,30,0.00,,,0.01,,2013-09-29 17:24:00,
2013-09-29 12:43:00,70.0,35.0,30.03,WSW,244,6.0,18.0,28,0.00,,,0.01,,2013-09-29 17:43:00,
2013-09-29 12:52:00,70.0,35.0,30.03,WSW,244,6.0,18.0,28,0.00,,,0.01,,2013-09-29 17:52:00,
2013-09-29 13:13:00,71.0,35.0,30.03,SSE,160,6.0,13.0,27,0.00,,,0.01,,2013-09-29 18:13:00,
2013-09-29 13:22:00,71.0,35.0,30.03,SSE,160,6.0,13.0,27,0.00,,,0.01,,2013-09-29 18:22:00,
2013-09-29 13:42:00,72.0,38.0,30.00,NW,311,5.0,14.0,29,0.00,,,0.01,,2013-09-29 18:42:00,
2013-09-29 13:52:00,72.0,38.0,30.00,NW,311,5.0,14.0,29,0.00,,,0.01,,2013-09-29 18:52:00,
2013-09-29 14:11:00,72.0,36.0,30.00,SW,233,9.0,17.0,27,0.00,,,0.01,,2013-09-29 19:11:00,
2013-09-29 14:22:00,72.0,36.0,30.00,SW,233,9.0,17.0,27,0.00,,,0.01,,2013-09-29 19:22:00,
2013-09-29 14:42:00,73.0,36.0,29.96,WSW,241,5.0,14.0,26,0.00,,,0.01,,2013-09-29 19:42:00,
2013-09-29 14:52:00,73.0,36.0,29.96,WSW,241,5.0,14.0,26,0.00,,,0.01,,2013-09-29 19:52:00,
2013-09-29 15:12:00,73.0,37.0,29.96,West,270,5.0,12.0,27,0.00,,,0.01,,2013-09-29 20:12:00,
2013-09-29 15:22:00,73.0,37.0,29.96,West,270,5.0,12.0,27,0.00,,,0.01,,2013-09-29 20:22:00,
2013-09-29 15:43:00,73.0,38.0,29.95,NW,306,5.0,12.0,28,0.00,,,0.01,,2013-09-29 20:43:00,
2013-09-29 15:52:00,73.0,38.0,29.95,NW,306,5.0,12.0,28,0.00,,,0.01,,2013-09-29 20:52:00,
2013-09-29 16:11:00,73.0,38.0,29.93,NNW,347,7.0,18.0,28,0.00,,,0.01,,2013-09-29 21:11:00,
2013-09-29 16:21:00,73.0,38.0,29.93,NNW,347,7.0,18.0,28,0.00,,,0.01,,2013-09-29 21:21:00,
2013-09-29 16:44:00,73.0,37.0,29.93,East,90,1.0,12.0,27,0.00,,,0.01,,2013-09-29 21:44:00,
2013-09-29 16:55:00,73.0,37.0,29.93,East,90,1.0,12.0,27,0.00,,,0.01,,2013-09-29 21:55:00,
2013-09-29 17:14:00,73.0,38.0,29.92,North,0,5.0,9.0,28,0.00,,,0.01,,2013-09-29 22:14:00,
2013-09-29 17:24:00,73.0,38.0,29.92,North,0,5.0,9.0,28,0.00,,,0.01,,2013-09-29 22:24:00,
2013-09-29 17:53:00,73.0,35.0,29.93,SSW,192,2.0,12.0,25,0.00,,,0.01,,2013-09-29 22:53:00,
2013-09-29 18:03:00,73.0,35.0,29.93,SSW,192,2.0,12.0,25,0.00,,,0.01,,2013-09-29 23:03:00,
2013-09-29 18:12:00,73.0,35.0,29.93,SSW,192,2.0,12.0,25,0.00,,,0.01,,2013-09-29 23:12:00,
2013-09-29 18:23:00,73.0,32.0,29.93,SW,220,5.0,12.0,22,0.00,,,0.01,,2013-09-29 23:23:00,
2013-09-29 18:34:00,73.0,32.0,29.93,SW,220,5.0,12.0,22,0.00,,,0.01,,2013-09-29 23:34:00,
2013-09-29 18:43:00,73.0,32.0,29.93,SW,220,5.0,12.0,22,0.00,,,0.01,,2013-09-29 23:43:00,
2013-09-29 18:53:00,72.0,32.0,29.94,West,271,0.0,8.0,23,0.00,,,0.01,,2013-09-29 23:53:00,
2013-09-29 19:01:00,72.0,32.0,29.94,West,271,0.0,8.0,23,0.00,,,0.01,,2013-09-30 00:01:00,
2013-09-29 19:11:00,72.0,32.0,29.94,West,271,0.0,8.0,23,0.00,,,0.01,,2013-09-30 00:11:00,
2013-09-29 19:22:00,70.0,34.0,29.95,WNW,302,1.0,7.0,27,0.00,,,0.01,,2013-09-30 00:22:00,
2013-09-29 19:32:00,70.0,34.0,29.95,WNW,302,1.0,7.0,27,0.00,,,0.01,,2013-09-30 00:32:00,
2013-09-29 19:42:00,70.0,34.0,29.95,WNW,302,1.0,7.0,27,0.00,,,0.01,,2013-09-30 00:42:00,
2013-09-29 19:52:00,67.0,32.0,29.97,WSW,256,1.0,8.0,27,0.00,,,0.01,,2013-09-30 00:52:00,
2013-09-29 20:02:00,67.0,32.0,29.97,WSW,256,1.0,8.0,27,0.00,,,0.01,,2013-09-30 01:02:00,
2013-09-29 20:11:00,67.0,32.0,29.97,WSW,256,1.0,8.0,27,0.00,,,0.01,,2013-09-30 01:11:00,
2013-09-29 20:22:00,60.0,39.0,30.01,WSW,256,0.0,2.0,46,0.00,,,0.01,,2013-09-30 01:22:00,
2013-09-29 20:32:00,60.0,39.0,30.01,WSW,256,0.0,2.0,46,0.00,,,0.01,,2013-09-30 01:32:00,
2013-09-29 20:42:00,60.0,39.0,30.01,WSW,256,0.0,2.0,46,0.00,,,0.01,,2013-09-30 01:42:00,
2013-09-29 21:42:00,51.0,39.0,30.01,WSW,256,0.0,1.0,63,0.00,,,0.01,,2013-09-30 02:42:00,
2013-09-29 21:52:00,48.0,37.0,29.93,WSW,256,0.0,1.0,66,0.00,,,0.01,,2013-09-30 02:52:00,
2013-09-29 22:02:00,48.0,37.0,29.93,WSW,256,0.0,1.0,66,0.00,,,0.01,,2013-09-30 03:02:00,
2013-09-29 22:12:00,48.0,37.0,29.93,WSW,256,0.0,1.0,66,0.00,,,0.01,,2013-09-30 03:12:00,
2013-09-29 22:22:00,46.0,37.0,29.95,WSW,256,0.0,0.0,70,0.00,,,0.01,,2013-09-30 03:22:00,
2013-09-29 22:34:00,46.0,37.0,29.95,WSW,256,0.0,0.0,70,0.00,,,0.01,,2013-09-30 03:34:00,
2013-09-29 22:45:00,46.0,37.0,29.95,WSW,256,0.0,0.0,70,0.00,,,0.01,,2013-09-30 03:45:00,
2013-09-29 22:55:00,45.0,37.0,29.95,WSW,256,0.0,1.0,73,0.00,,,0.01,,2013-09-30 03:55:00,
2013-09-29 23:04:00,45.0,37.0,29.95,WSW,256,0.0,1.0,73,0.00,,,0.01,,2013-09-30 04:04:00,
2013-09-29 23:14:00,45.0,37.0,29.95,WSW,256,0.0,1.0,73,0.00,,,0.01,,2013-09-30 04:14:00,
2013-09-29 23:25:00,44.0,37.0,29.96,WSW,256,0.0,3.0,75,0.00,,,0.01,,2013-09-30 04:25:00,
2013-09-29 23:33:00,44.0,37.0,29.96,WSW,256,0.0,3.0,75,0.00,,,0.01,,2013-09-30 04:33:00,
2013-09-29 23:44:00,44.0,37.0,29.96,WSW,256,0.0,3.0,75,0.00,,,0.01,,2013-09-30 04:44:00,
2013-09-29 23:53:00,44.0,37.0,29.95,WSW,256,0.0,3.0,75,0.00,,,0.01,,2013-09-30 04:53:00,